Terminal Aerodrome Forecast
Issued by NWS Brownsville, TX

Home | Current Version | Previous Version | Text Only | Print | Product List | Glossary On
Versions: 1 2 3 4 5 6 7 8 9 10 11 12 13 14 15 16 17 18 19 20 21 22 23
000
FTUS44 KBRO 121300 AAA
TAFMFE
TAF AMD
KMFE 121326Z 1213/1312 00000KT 3/4SM BR OVC002
     FM121500 14013KT 5SM BR SCT010 SCT030
     FM121700 12013KT P6SM SCT040
     FM130200 10007KT P6SM SKC
      TEMPO 1308/1312 3SM BR=

USA.gov is the U.S. government's official web portal to all federal, state and local government web resources and services.